createdAt,value
2023-05-04T00:00:54.089Z,102167.09
2023-05-04T00:05:58.133Z,102158.06
2023-05-04T00:11:03.557Z,102143.59
2023-05-04T00:16:10.418Z,102145.75
2023-05-04T00:21:14.964Z,102145.94
2023-05-04T00:26:20.403Z,102145.59
2023-05-04T00:31:24.931Z,102133.06
2023-05-04T00:36:29.047Z,102139.22
2023-05-04T00:41:34.470Z,102134.34
2023-05-04T00:46:39.587Z,102137.06
2023-05-04T00:51:43.774Z,102137.31
2023-05-04T00:56:49.627Z,102124.41
2023-05-04T01:01:53.628Z,102118.56
2023-05-04T01:07:08.710Z,102132.00
2023-05-04T01:12:19.334Z,102114.25
2023-05-04T01:17:23.333Z,102111.88
2023-05-04T01:22:28.966Z,102119.91
2023-05-04T01:27:41.655Z,102112.28
2023-05-04T01:32:48.543Z,102109.91
2023-05-04T01:37:53.795Z,102102.00
2023-05-04T01:42:57.900Z,102101.81
2023-05-04T01:48:02.013Z,102105.47
2023-05-04T01:53:07.393Z,102104.88
2023-05-04T01:58:11.416Z,102100.59
2023-05-04T02:03:15.594Z,102102.69
2023-05-04T02:08:21.276Z,102113.31
2023-05-04T02:13:25.201Z,102097.19
2023-05-04T02:18:29.233Z,102089.00
2023-05-04T02:23:34.629Z,102086.72
2023-05-04T02:28:38.697Z,102089.53
2023-05-04T02:33:42.800Z,102089.75
2023-05-04T02:38:48.396Z,102088.53
2023-05-04T02:43:52.463Z,102091.44
2023-05-04T02:48:56.652Z,102083.03
2023-05-04T02:54:02.011Z,102086.88
2023-05-04T02:59:06.041Z,102083.63
2023-05-04T03:04:10.190Z,102074.50
2023-05-04T03:09:15.596Z,102080.72
2023-05-04T03:14:20.106Z,102076.78
2023-05-04T03:19:24.275Z,102060.56
2023-05-04T03:24:29.979Z,102060.75
2023-05-04T03:29:34.247Z,102058.72
2023-05-04T03:34:38.645Z,102045.06
2023-05-04T03:39:45.119Z,102045.69
2023-05-04T03:44:49.188Z,102048.72
2023-05-04T03:49:53.281Z,102046.22
2023-05-04T03:54:59.621Z,102041.75
2023-05-04T04:00:04.284Z,102046.03
2023-05-04T04:05:18.792Z,102036.66
2023-05-04T04:10:25.969Z,102037.69
2023-05-04T04:15:30.122Z,102037.91
2023-05-04T04:20:34.457Z,102035.31
2023-05-04T04:25:39.850Z,102036.56
2023-05-04T04:30:43.980Z,102030.44
2023-05-04T04:35:48.296Z,102030.72
2023-05-04T04:40:53.774Z,102032.19
2023-05-04T04:45:58.676Z,102022.13
2023-05-04T04:51:02.775Z,102028.25
2023-05-04T04:56:09.802Z,102027.41
2023-05-04T05:01:17.665Z,102031.47
2023-05-04T05:06:21.582Z,102033.16
2023-05-04T05:11:27.134Z,102035.81
2023-05-04T05:16:31.192Z,102032.72
2023-05-04T05:21:35.216Z,102035.84
2023-05-04T05:26:40.585Z,102045.09
2023-05-04T05:31:44.570Z,102036.06
2023-05-04T05:36:49.074Z,102025.34
2023-05-04T05:41:58.338Z,102025.44
2023-05-04T05:47:02.636Z,102020.66
2023-05-04T05:52:07.030Z,102020.00
2023-05-04T05:57:12.502Z,102018.25
2023-05-04T06:02:16.602Z,102023.34
2023-05-04T06:07:21.721Z,101995.28
2023-05-04T06:12:27.251Z,102003.47
2023-05-04T06:17:31.382Z,102002.00
2023-05-04T06:22:35.509Z,101998.84
2023-05-04T06:27:41.000Z,101992.28
2023-05-04T06:32:45.247Z,101992.69
2023-05-04T06:42:59.447Z,101979.34
2023-05-04T06:48:03.574Z,101971.91
2023-05-04T06:53:09.284Z,101959.25
2023-05-04T06:58:14.823Z,101962.16
2023-05-04T07:03:18.855Z,101952.28
2023-05-04T07:08:22.821Z,101936.69
2023-05-04T07:13:28.389Z,101939.22
2023-05-04T07:18:32.581Z,101938.63
2023-05-04T07:23:37.112Z,101943.44
2023-05-04T07:28:43.878Z,101935.38
2023-05-04T07:33:48.897Z,101937.97
2023-05-04T07:38:52.945Z,101926.72
2023-05-04T07:43:58.369Z,101937.72
2023-05-04T07:49:03.272Z,101927.25
2023-05-04T07:54:07.442Z,101917.16
2023-05-04T07:59:13.015Z,101909.34
2023-05-04T08:04:17.121Z,101898.91
2023-05-04T08:09:21.337Z,101890.13
2023-05-04T08:14:26.773Z,101880.59
2023-05-04T08:19:31.053Z,101880.25
2023-05-04T08:24:35.084Z,101873.31
2023-05-04T08:29:41.755Z,101874.47
2023-05-04T08:34:47.431Z,101858.84
2023-05-04T08:39:51.551Z,101851.50
2023-05-04T08:44:58.306Z,101855.66
2023-05-04T08:50:04.688Z,101840.00
2023-05-04T08:55:13.191Z,101832.25
2023-05-04T09:00:20.749Z,101840.19
2023-05-04T09:05:26.229Z,101826.03
2023-05-04T09:10:30.395Z,101815.72
2023-05-04T09:15:35.817Z,101809.06
2023-05-04T09:20:47.828Z,101799.22
2023-05-04T09:25:53.704Z,101805.06
2023-05-04T09:31:02.568Z,101788.69
2023-05-04T09:36:17.148Z,101776.91
2023-05-04T09:41:34.112Z,101769.22
2023-05-04T09:46:39.642Z,101751.84
2023-05-04T09:51:47.287Z,101745.09
2023-05-04T09:56:57.029Z,101732.38
2023-05-04T10:02:18.148Z,101724.34
2023-05-04T10:07:26.991Z,101692.22
2023-05-04T10:12:31.516Z,101682.66
2023-05-04T10:18:01.495Z,101661.59
2023-05-04T10:23:24.113Z,101656.03
2023-05-04T10:28:44.315Z,101640.97
2023-05-04T10:33:52.123Z,101636.44
2023-05-04T10:38:56.449Z,101625.44
2023-05-04T10:44:10.088Z,101606.16
2023-05-04T10:49:18.874Z,101599.81
2023-05-04T10:54:22.886Z,101576.41
2023-05-04T10:59:27.144Z,101572.53
2023-05-04T11:04:33.532Z,101570.28
2023-05-04T11:09:38.130Z,101553.91
2023-05-04T11:14:43.451Z,101560.22
2023-05-04T11:19:53.316Z,101536.44
2023-05-04T11:24:57.777Z,101535.59
2023-05-04T11:30:03.240Z,101530.72
2023-05-04T11:35:11.810Z,101515.66
2023-05-04T11:40:18.289Z,101513.56
2023-05-04T11:45:25.071Z,101493.47
2023-05-04T11:50:31.563Z,101496.97
2023-05-04T11:55:36.131Z,101491.50
2023-05-04T12:00:42.181Z,101477.53
2023-05-04T12:05:51.579Z,101477.53
2023-05-04T12:11:12.220Z,101467.44
2023-05-04T12:16:18.758Z,101459.66
2023-05-04T12:21:24.189Z,101452.34
2023-05-04T12:26:28.634Z,101453.28
2023-05-04T12:31:32.716Z,101453.66
2023-05-04T12:36:38.321Z,101449.78
2023-05-04T12:41:42.408Z,101445.69
2023-05-04T12:46:46.491Z,101437.34
2023-05-04T12:51:52.143Z,101432.25
2023-05-04T12:56:56.252Z,101429.28
2023-05-04T13:02:00.186Z,101418.94
2023-05-04T13:07:05.677Z,101409.41
2023-05-04T13:12:09.686Z,101399.84
2023-05-04T13:17:15.158Z,101404.56
2023-05-04T13:22:20.685Z,101386.78
2023-05-04T13:27:24.955Z,101378.44
2023-05-04T13:32:29.161Z,101364.97
2023-05-04T13:37:35.755Z,101349.47
2023-05-04T13:42:40.218Z,101346.81
2023-05-04T13:47:45.266Z,101339.69
2023-05-04T13:52:50.673Z,101329.91
2023-05-04T13:57:55.430Z,101323.78
2023-05-04T14:02:59.718Z,101339.03
2023-05-04T14:08:06.139Z,101335.19
2023-05-04T14:13:10.273Z,101341.28
2023-05-04T14:18:14.675Z,101327.63
2023-05-04T14:23:20.264Z,101323.13
2023-05-04T14:28:24.607Z,101310.09
2023-05-04T14:33:28.803Z,101318.09
2023-05-04T14:38:36.125Z,101309.72
2023-05-04T14:43:40.261Z,101302.78
2023-05-04T14:48:44.354Z,101305.63
2023-05-04T14:53:49.826Z,101292.97
2023-05-04T14:58:54.225Z,101277.47
2023-05-04T15:03:58.350Z,101272.78
2023-05-04T15:09:04.869Z,101267.66
2023-05-04T15:14:08.889Z,101260.69
2023-05-04T15:19:12.848Z,101250.50
2023-05-04T15:24:18.373Z,101239.50
2023-05-04T15:29:22.948Z,101242.13
2023-05-04T15:34:26.984Z,101242.31
2023-05-04T15:39:32.511Z,101248.03
2023-05-04T15:44:36.573Z,101252.91
2023-05-04T15:49:40.752Z,101240.09
2023-05-04T15:54:47.349Z,101241.50
2023-05-04T15:59:51.336Z,101226.41
2023-05-04T16:04:55.428Z,101228.69
2023-05-04T16:10:01.105Z,101233.00
2023-05-04T16:15:06.884Z,101218.91
2023-05-04T16:20:12.505Z,101212.59
2023-05-04T16:25:18.141Z,101216.66
2023-05-04T16:30:22.712Z,101212.81
2023-05-04T16:35:27.913Z,101217.50
2023-05-04T16:40:33.511Z,101215.25
2023-05-04T16:45:38.194Z,101214.63
2023-05-04T16:50:42.244Z,101215.03
2023-05-04T16:55:47.892Z,101209.50
2023-05-04T17:00:51.900Z,101205.63
2023-05-04T17:05:55.936Z,101211.09
2023-05-04T17:11:01.627Z,101206.97
2023-05-04T17:16:06.714Z,101212.63
2023-05-04T17:21:10.924Z,101224.63
2023-05-04T17:26:16.517Z,101206.06
2023-05-04T17:31:20.594Z,101198.09
2023-05-04T17:36:24.727Z,101216.78
2023-05-04T17:41:31.260Z,101207.75
2023-05-04T17:46:35.451Z,101205.88
2023-05-04T17:51:40.120Z,101210.53
2023-05-04T17:56:45.709Z,101209.47
2023-05-04T18:01:49.789Z,101211.28
2023-05-04T18:06:53.932Z,101219.34
2023-05-04T18:11:59.298Z,101216.03
2023-05-04T18:17:03.301Z,101218.22
2023-05-04T18:22:07.656Z,101218.78
2023-05-04T18:27:13.073Z,101222.38
2023-05-04T18:32:17.250Z,101228.06
2023-05-04T18:37:21.731Z,101227.50
2023-05-04T18:42:27.468Z,101225.84
2023-05-04T18:47:31.605Z,101221.09
2023-05-04T18:52:35.696Z,101236.25
2023-05-04T18:57:41.169Z,101234.94
2023-05-04T19:02:45.297Z,101246.25
2023-05-04T19:07:49.366Z,101243.72
2023-05-04T19:12:54.853Z,101234.00
2023-05-04T19:17:58.906Z,101242.03
2023-05-04T19:23:03.039Z,101247.41
2023-05-04T19:28:09.864Z,101249.31
2023-05-04T19:33:13.878Z,101251.25
2023-05-04T19:38:18.057Z,101246.25
2023-05-04T19:43:23.459Z,101248.19
2023-05-04T19:48:27.600Z,101248.09
2023-05-04T19:53:31.697Z,101258.53
2023-05-04T19:58:38.640Z,101255.00
2023-05-04T20:03:42.673Z,101249.41
2023-05-04T20:08:46.688Z,101256.22
2023-05-04T20:13:54.091Z,101269.28
2023-05-04T20:19:01.906Z,101265.56
2023-05-04T20:24:08.677Z,101269.28
2023-05-04T20:29:14.006Z,101268.69
2023-05-04T20:34:18.970Z,101267.97
2023-05-04T20:39:23.672Z,101259.47
2023-05-04T20:44:29.245Z,101263.81
2023-05-04T20:49:33.311Z,101245.44
2023-05-04T20:54:37.323Z,101242.84
2023-05-04T20:59:42.699Z,101250.47
2023-05-04T21:04:48.788Z,101241.44
2023-05-04T21:09:58.287Z,101240.16
2023-05-04T21:15:03.887Z,101236.88
2023-05-04T21:20:09.582Z,101228.53
2023-05-04T21:25:13.768Z,101228.72
2023-05-04T21:30:19.247Z,101234.13
2023-05-04T21:35:24.554Z,101234.97
2023-05-04T21:40:28.787Z,101236.75
2023-05-04T21:45:34.382Z,101229.22
2023-05-04T21:50:38.485Z,101230.19
2023-05-04T21:55:42.616Z,101231.38
2023-05-04T22:00:48.089Z,101214.94
2023-05-04T22:05:54.437Z,101227.28
2023-05-04T22:10:59.209Z,101229.25
2023-05-04T22:16:04.843Z,101234.38
2023-05-04T22:21:08.856Z,101242.00
2023-05-04T22:26:12.876Z,101255.19
2023-05-04T22:31:18.363Z,101269.31
2023-05-04T22:36:22.567Z,101280.66
2023-05-04T22:41:27.175Z,101284.13
2023-05-04T22:46:32.713Z,101292.00
2023-05-04T22:51:37.088Z,101287.91
2023-05-04T22:56:41.393Z,101297.44
2023-05-04T23:01:46.802Z,101294.16
2023-05-04T23:06:50.913Z,101286.25
2023-05-04T23:11:55.192Z,101293.34
2023-05-04T23:17:00.654Z,101310.94
2023-05-04T23:22:04.761Z,101310.25
2023-05-04T23:27:08.791Z,101304.66
2023-05-04T23:32:14.146Z,101313.56
2023-05-04T23:37:18.199Z,101329.50
2023-05-04T23:42:22.202Z,101337.91
2023-05-04T23:47:27.594Z,101342.16
2023-05-04T23:52:31.612Z,101346.47
2023-05-04T23:57:35.674Z,101351.75
